createdAt,value
2022-09-05T00:02:36.317Z,6.47
2022-09-05T00:05:50.998Z,7.60
2022-09-05T00:08:51.597Z,7.10
2022-09-05T00:11:40.810Z,7.40
2022-09-05T00:14:34.288Z,8.03
2022-09-05T00:17:47.184Z,7.80
2022-09-05T00:24:28.181Z,7.57
2022-09-05T00:24:37.911Z,7.70
2022-09-05T00:26:31.661Z,8.17
2022-09-05T00:29:14.906Z,7.80
2022-09-05T00:32:01.117Z,7.50
2022-09-05T00:34:49.896Z,7.60
2022-09-05T00:37:32.360Z,7.83
2022-09-05T00:40:20.461Z,7.20
2022-09-05T00:42:57.797Z,7.50
2022-09-05T00:45:33.212Z,7.23
2022-09-05T00:48:16.608Z,8.00
2022-09-05T00:51:02.361Z,8.20
2022-09-05T00:53:41.299Z,8.23
2022-09-05T00:56:26.188Z,8.53
2022-09-05T00:59:34.673Z,8.10
2022-09-05T01:02:11.165Z,8.03
2022-09-05T01:04:47.849Z,8.30
2022-09-05T01:07:44.206Z,8.73
2022-09-05T01:10:27.080Z,8.67
2022-09-05T01:13:16.104Z,8.63
2022-09-05T01:15:55.447Z,9.00
2022-09-05T01:18:41.114Z,8.30
2022-09-05T01:21:31.468Z,8.60
2022-09-05T01:24:28.088Z,8.63
2022-09-05T01:27:41.008Z,8.00
2022-09-05T01:30:31.793Z,7.87
2022-09-05T01:33:11.909Z,8.37
2022-09-05T01:36:05.547Z,9.67
2022-09-05T01:38:44.552Z,9.33
2022-09-05T01:41:37.959Z,9.37
2022-09-05T01:44:32.436Z,9.10
2022-09-05T01:47:25.561Z,9.47
2022-09-05T01:50:11.495Z,9.13
2022-09-05T01:52:59.037Z,10.50
2022-09-05T01:56:04.907Z,9.23
2022-09-05T01:58:51.363Z,9.60
2022-09-05T02:01:32.924Z,9.30
2022-09-05T02:04:28.924Z,10.47
2022-09-05T02:07:19.967Z,9.00
2022-09-05T02:10:14.215Z,8.53
2022-09-05T02:12:58.443Z,8.70
2022-09-05T02:15:59.534Z,9.67
2022-09-05T02:18:44.762Z,9.83
2022-09-05T02:21:23.010Z,9.97
2022-09-05T02:24:04.218Z,9.50
2022-09-05T02:26:37.708Z,9.10
2022-09-05T02:29:29.417Z,9.67
2022-09-05T02:32:04.135Z,8.80
2022-09-05T02:34:42.031Z,10.07
2022-09-05T02:37:21.549Z,10.47
2022-09-05T02:45:02.775Z,10.47
2022-09-05T02:45:14.351Z,10.70
2022-09-05T02:46:14.547Z,10.20
2022-09-05T02:48:56.082Z,11.33
2022-09-05T02:57:24.836Z,10.60
2022-09-05T02:57:39.933Z,10.63
2022-09-05T02:58:06.215Z,10.63
2022-09-05T03:00:25.101Z,10.53
2022-09-05T03:03:09.445Z,10.23
2022-09-05T03:05:45.697Z,10.43
2022-09-05T03:08:24.346Z,10.33
2022-09-05T03:11:29.043Z,10.37
2022-09-05T03:14:42.685Z,10.67
2022-09-05T03:17:53.617Z,10.20
2022-09-05T03:21:09.654Z,9.90
2022-09-05T03:24:30.755Z,10.20
2022-09-05T03:27:33.433Z,10.43
2022-09-05T03:30:13.373Z,10.20
2022-09-05T03:33:20.293Z,10.30
2022-09-05T03:36:26.917Z,10.43
2022-09-05T03:39:32.611Z,11.23
2022-09-05T03:42:31.052Z,10.60
2022-09-05T03:45:37.024Z,10.37
2022-09-05T03:48:31.037Z,11.13
2022-09-05T03:57:05.358Z,10.40
2022-09-05T03:57:28.306Z,10.87
2022-09-05T03:57:41.794Z,11.00
2022-09-05T04:00:22.512Z,10.80
2022-09-05T04:08:09.486Z,11.13
2022-09-05T04:08:24.210Z,10.83
2022-09-05T04:09:11.319Z,11.37
2022-09-05T04:11:44.400Z,10.57
2022-09-05T04:14:23.261Z,10.47
2022-09-05T04:16:56.198Z,10.63
2022-09-05T04:19:31.376Z,10.33
2022-09-05T04:22:17.016Z,9.87
2022-09-05T04:24:52.657Z,10.03
2022-09-05T04:27:39.564Z,9.77
2022-09-05T04:30:38.679Z,9.73
2022-09-05T04:33:22.272Z,9.53
2022-09-05T04:36:19.013Z,8.97
2022-09-05T04:39:10.415Z,9.50
2022-09-05T04:41:44.837Z,9.17
2022-09-05T04:44:18.679Z,8.63
2022-09-05T04:46:53.555Z,8.47
2022-09-05T04:49:28.032Z,8.57
2022-09-05T04:52:16.808Z,8.07
2022-09-05T04:55:01.811Z,8.43
2022-09-05T04:57:36.578Z,7.80
2022-09-05T05:06:05.654Z,8.07
2022-09-05T05:06:05.741Z,8.30
2022-09-05T05:06:30.001Z,7.90
2022-09-05T05:08:54.874Z,7.13
2022-09-05T05:17:55.336Z,7.17
2022-09-05T05:18:13.564Z,6.87
2022-09-05T05:18:15.463Z,6.97
2022-09-05T05:20:41.239Z,7.00
2022-09-05T05:23:16.150Z,6.07
2022-09-05T05:25:52.715Z,6.77
2022-09-05T05:28:29.976Z,6.07
2022-09-05T05:31:11.399Z,5.67
2022-09-05T05:33:50.682Z,6.00
2022-09-05T05:36:25.466Z,5.87
2022-09-05T05:39:00.506Z,6.40
2022-09-05T05:41:38.739Z,5.73
2022-09-05T05:44:16.190Z,5.90
2022-09-05T05:46:49.050Z,5.70
2022-09-05T05:49:32.237Z,5.83
2022-09-05T05:52:14.516Z,5.53
2022-09-05T05:54:51.186Z,5.70
2022-09-05T05:58:09.129Z,5.77
2022-09-05T06:01:03.065Z,5.60
2022-09-05T06:04:02.321Z,6.00
2022-09-05T06:06:44.658Z,5.93
2022-09-05T06:14:48.507Z,6.13
2022-09-05T06:15:05.738Z,5.60
2022-09-05T06:16:34.770Z,5.20
2022-09-05T06:22:04.998Z,5.83
2022-09-05T06:23:37.444Z,5.73
2022-09-05T06:26:34.912Z,5.03
2022-09-05T06:29:11.325Z,5.50
2022-09-05T06:32:02.249Z,5.33
2022-09-05T06:35:04.837Z,4.90
2022-09-05T06:37:45.932Z,4.83
2022-09-05T06:40:21.407Z,4.77
2022-09-05T06:43:31.805Z,5.20
2022-09-05T06:46:11.989Z,4.70
2022-09-05T06:49:29.965Z,4.80
2022-09-05T06:52:29.449Z,4.80
2022-09-05T06:55:34.443Z,5.07
2022-09-05T06:58:39.884Z,5.20
2022-09-05T07:01:11.287Z,4.83
2022-09-05T07:03:59.789Z,4.73
2022-09-05T07:07:06.277Z,5.07
2022-09-05T07:09:58.443Z,4.07
2022-09-05T07:12:32.010Z,4.83
2022-09-05T07:15:11.201Z,4.73
2022-09-05T07:18:09.524Z,4.63
2022-09-05T07:21:16.458Z,4.43
2022-09-05T07:24:06.191Z,4.30
2022-09-05T07:26:51.819Z,4.28
2022-09-05T07:29:27.961Z,4.15
2022-09-05T07:31:59.980Z,3.97
2022-09-05T07:34:31.663Z,4.30
2022-09-05T07:37:14.549Z,4.00
2022-09-05T07:39:51.886Z,4.00
2022-09-05T07:42:26.526Z,4.00
2022-09-05T07:44:59.838Z,4.10
2022-09-05T07:47:33.277Z,3.80
2022-09-05T07:50:42.868Z,4.10
2022-09-05T07:56:50.997Z,4.15
2022-09-05T07:57:10.066Z,3.88
2022-09-05T07:58:50.858Z,3.67
2022-09-05T08:01:24.119Z,3.65
2022-09-05T08:04:00.339Z,4.00
2022-09-05T08:07:47.879Z,3.17
2022-09-05T08:10:06.247Z,3.28
2022-09-05T08:12:28.027Z,3.38
2022-09-05T08:15:10.246Z,3.95
2022-09-05T08:17:57.334Z,3.40
2022-09-05T08:20:37.219Z,3.47
2022-09-05T08:23:10.717Z,3.90
2022-09-05T08:25:56.950Z,3.50
2022-09-05T08:28:39.300Z,3.53
2022-09-05T08:31:15.159Z,4.70
2022-09-05T08:33:47.005Z,4.60
2022-09-05T08:36:25.593Z,3.58
2022-09-05T08:38:55.326Z,3.80
2022-09-05T08:41:49.185Z,3.60
2022-09-05T08:46:40.020Z,3.47
2022-09-05T08:47:32.435Z,3.88
2022-09-05T08:50:29.542Z,3.13
2022-09-05T08:53:28.356Z,3.20
2022-09-05T08:56:05.977Z,3.05
2022-09-05T08:59:27.896Z,3.13
2022-09-05T09:02:44.822Z,3.25
2022-09-05T09:05:14.318Z,3.03
2022-09-05T09:07:52.007Z,3.20
2022-09-05T09:10:43.011Z,2.60
2022-09-05T09:13:27.436Z,2.95
2022-09-05T09:16:06.938Z,2.80
2022-09-05T09:18:46.152Z,3.22
2022-09-05T09:21:28.734Z,2.88
2022-09-05T09:24:09.063Z,2.78
2022-09-05T09:26:44.344Z,2.80
2022-09-05T09:29:19.348Z,3.05
2022-09-05T09:32:09.749Z,2.55
2022-09-05T09:34:56.188Z,2.80
2022-09-05T09:38:12.939Z,2.38
2022-09-05T09:41:24.508Z,2.65
2022-09-05T09:44:24.439Z,2.58
2022-09-05T09:48:07.625Z,2.42
2022-09-05T09:51:02.562Z,2.25
2022-09-05T09:53:49.478Z,2.70
2022-09-05T09:57:04.391Z,2.60
2022-09-05T09:59:59.960Z,2.70
2022-09-05T10:06:03.206Z,2.53
2022-09-05T10:10:45.059Z,2.55
2022-09-05T10:10:59.752Z,2.70
2022-09-05T10:13:09.940Z,2.38
2022-09-05T10:15:51.477Z,2.40
2022-09-05T10:18:41.466Z,2.10
2022-09-05T10:21:35.673Z,2.17
2022-09-05T10:24:43.886Z,2.75
2022-09-05T10:27:36.994Z,2.20
2022-09-05T10:30:11.226Z,2.47
2022-09-05T10:35:04.457Z,2.50
2022-09-05T10:35:38.879Z,2.70
2022-09-05T10:38:15.924Z,2.22
2022-09-05T10:41:20.311Z,2.90
2022-09-05T10:43:49.625Z,2.60
2022-09-05T10:49:27.046Z,2.67
2022-09-05T10:52:19.048Z,2.45
2022-09-05T10:55:17.853Z,2.33
2022-09-05T10:58:02.584Z,2.22
2022-09-05T11:02:28.058Z,2.30
2022-09-05T11:03:53.985Z,1.80
2022-09-05T11:06:37.012Z,2.47
2022-09-05T11:09:16.476Z,2.20
2022-09-05T11:12:03.812Z,1.95
2022-09-05T11:14:49.388Z,2.20
2022-09-05T11:17:35.728Z,3.45
2022-09-05T11:20:35.530Z,3.42
2022-09-05T11:23:11.824Z,2.00
2022-09-05T11:25:43.653Z,2.08
2022-09-05T11:28:20.195Z,2.13
2022-09-05T11:30:55.201Z,2.80
2022-09-05T11:39:53.152Z,2.35
2022-09-05T11:39:54.837Z,2.40
2022-09-05T11:40:29.250Z,2.45
2022-09-05T11:43:21.027Z,2.30
2022-09-05T11:46:29.930Z,1.98
2022-09-05T11:49:47.327Z,2.30
2022-09-05T11:52:58.078Z,1.77
2022-09-05T11:55:37.575Z,2.22
2022-09-05T11:58:45.387Z,2.00
2022-09-05T12:01:41.851Z,1.98
2022-09-05T12:04:36.339Z,1.92
2022-09-05T12:07:42.667Z,2.03
2022-09-05T12:10:46.386Z,1.77
2022-09-05T12:13:44.210Z,2.15
2022-09-05T12:16:43.542Z,2.28
2022-09-05T12:19:27.150Z,2.40
2022-09-05T12:22:39.259Z,2.10
2022-09-05T12:27:36.927Z,1.80
2022-09-05T12:29:26.366Z,2.08
2022-09-05T12:32:49.559Z,2.67
2022-09-05T12:36:06.806Z,2.42
2022-09-05T12:40:54.952Z,3.38
2022-09-05T12:41:37.925Z,2.05
2022-09-05T12:44:45.099Z,2.15
2022-09-05T12:46:24.273Z,2.30
2022-09-05T12:49:04.118Z,2.08
2022-09-05T12:51:45.147Z,2.00
2022-09-05T12:54:33.408Z,2.00
2022-09-05T13:02:54.933Z,2.10
2022-09-05T13:03:07.759Z,2.70
2022-09-05T13:03:28.152Z,2.38
2022-09-05T13:06:02.071Z,2.95
2022-09-05T13:08:58.973Z,2.13
2022-09-05T13:14:50.428Z,2.15
2022-09-05T13:15:06.703Z,2.45
2022-09-05T13:17:20.164Z,2.42
2022-09-05T13:19:52.688Z,1.90
2022-09-05T13:22:25.088Z,2.22
2022-09-05T13:25:04.595Z,1.63
2022-09-05T13:27:41.413Z,2.97
2022-09-05T13:37:54.399Z,2.60
2022-09-05T13:38:02.953Z,2.38
2022-09-05T13:38:20.339Z,2.00
2022-09-05T13:39:06.736Z,2.38
2022-09-05T13:41:38.599Z,2.58
2022-09-05T13:44:26.303Z,2.45
2022-09-05T13:47:29.471Z,2.47
2022-09-05T13:50:13.039Z,3.55
2022-09-05T13:52:46.796Z,3.65
2022-09-05T13:55:24.031Z,2.47
2022-09-05T13:57:57.428Z,2.50
2022-09-05T14:01:08.401Z,2.10
2022-09-05T14:04:02.297Z,2.08
2022-09-05T14:10:22.523Z,2.47
2022-09-05T14:13:01.161Z,2.53
2022-09-05T14:15:41.730Z,2.20
2022-09-05T14:18:24.077Z,2.35
2022-09-05T14:21:17.016Z,2.80
2022-09-05T14:23:55.978Z,2.15
2022-09-05T14:26:32.379Z,2.33
2022-09-05T14:29:15.613Z,1.70
2022-09-05T14:37:41.131Z,2.20
2022-09-05T14:37:45.522Z,2.05
2022-09-05T14:38:11.485Z,1.92
2022-09-05T14:41:32.158Z,2.50
2022-09-05T14:44:42.942Z,2.08
2022-09-05T14:47:57.594Z,2.30
2022-09-05T14:50:49.790Z,2.00
2022-09-05T14:58:49.181Z,2.15
2022-09-05T15:02:43.423Z,2.45
2022-09-05T15:02:54.995Z,2.30
2022-09-05T15:05:23.799Z,2.30
2022-09-05T15:08:03.838Z,2.00
2022-09-05T15:12:20.839Z,2.78
2022-09-05T15:13:39.153Z,3.75
2022-09-05T15:16:10.653Z,2.05
2022-09-05T15:18:44.548Z,2.28
2022-09-05T15:21:33.073Z,2.63
2022-09-05T15:24:21.558Z,2.13
2022-09-05T15:26:54.008Z,2.00
2022-09-05T15:29:25.854Z,1.80
2022-09-05T15:32:12.576Z,1.77
2022-09-05T15:34:43.278Z,1.77
2022-09-05T15:37:29.360Z,2.05
2022-09-05T15:40:23.539Z,1.88
2022-09-05T15:42:57.529Z,2.22
2022-09-05T15:45:29.377Z,2.00
2022-09-05T15:48:12.619Z,4.38
2022-09-05T15:50:50.665Z,1.90
2022-09-05T15:53:25.728Z,1.98
2022-09-05T15:56:05.447Z,2.08
2022-09-05T15:58:54.194Z,2.15
2022-09-05T16:01:52.455Z,2.13
2022-09-05T16:10:31.079Z,3.97
2022-09-05T16:10:39.977Z,2.45
2022-09-05T16:10:49.080Z,3.67
2022-09-05T16:13:14.963Z,1.92
2022-09-05T16:18:17.292Z,2.28
2022-09-05T16:23:23.410Z,2.58
2022-09-05T16:23:23.591Z,2.47
2022-09-05T16:24:58.608Z,3.05
2022-09-05T16:27:37.138Z,3.03
2022-09-05T16:30:22.685Z,2.15
2022-09-05T16:32:55.507Z,2.47
2022-09-05T16:35:27.447Z,2.50
2022-09-05T16:38:04.622Z,1.90
2022-09-05T16:40:39.819Z,3.35
2022-09-05T16:43:16.107Z,2.00
2022-09-05T16:45:50.289Z,3.00
2022-09-05T16:48:36.154Z,2.28
2022-09-05T16:51:15.643Z,2.47
2022-09-05T16:53:59.154Z,3.00
2022-09-05T16:56:37.252Z,2.38
2022-09-05T16:59:11.896Z,1.98
2022-09-05T17:02:09.707Z,2.83
2022-09-05T17:05:04.014Z,2.10
2022-09-05T17:07:58.906Z,2.55
2022-09-05T17:10:31.626Z,2.58
2022-09-05T17:13:08.622Z,2.35
2022-09-05T17:15:52.180Z,2.20
2022-09-05T17:18:26.874Z,3.42
2022-09-05T17:21:01.692Z,2.20
2022-09-05T17:29:19.042Z,2.58
2022-09-05T17:29:25.746Z,2.20
2022-09-05T17:31:25.200Z,2.75
2022-09-05T17:32:43.931Z,2.30
2022-09-05T17:35:25.475Z,2.72
2022-09-05T17:38:18.366Z,2.97
2022-09-05T17:41:13.209Z,2.40
2022-09-05T17:43:44.329Z,2.70
2022-09-05T17:46:23.688Z,3.08
2022-09-05T17:49:17.887Z,2.90
2022-09-05T17:52:25.622Z,2.53
2022-09-05T17:54:56.617Z,3.33
2022-09-05T17:57:45.661Z,3.67
2022-09-05T18:01:01.248Z,3.50
2022-09-05T18:04:16.970Z,3.17
2022-09-05T18:06:59.698Z,3.95
2022-09-05T18:10:01.492Z,3.33
2022-09-05T18:13:31.211Z,3.47
2022-09-05T18:16:11.149Z,4.00
2022-09-05T18:19:32.855Z,3.90
2022-09-05T18:21:53.709Z,4.37
2022-09-05T18:24:35.380Z,4.30
2022-09-05T18:28:03.400Z,4.30
2022-09-05T18:30:12.464Z,4.60
2022-09-05T18:32:46.664Z,4.83
2022-09-05T18:35:37.730Z,5.23
2022-09-05T18:38:51.736Z,4.57
2022-09-05T18:41:25.106Z,4.43
2022-09-05T18:44:13.722Z,4.37
2022-09-05T18:46:52.128Z,4.67
2022-09-05T18:50:25.476Z,4.50
2022-09-05T18:52:23.804Z,4.83
2022-09-05T18:56:09.736Z,4.40
2022-09-05T18:57:57.847Z,4.30
2022-09-05T19:00:46.928Z,4.53
2022-09-05T19:03:24.993Z,3.40
2022-09-05T19:06:36.809Z,4.00
2022-09-05T19:08:52.953Z,3.97
2022-09-05T19:11:33.529Z,3.93
2022-09-05T19:14:26.116Z,3.77
2022-09-05T19:17:10.109Z,4.00
2022-09-05T19:20:30.678Z,4.03
2022-09-05T19:23:11.210Z,3.67
2022-09-05T19:25:44.373Z,3.67
2022-09-05T19:36:49.028Z,3.50
2022-09-05T19:37:05.925Z,3.33
2022-09-05T19:37:09.975Z,3.30
2022-09-05T19:45:32.772Z,3.27
2022-09-05T19:47:44.516Z,3.30
2022-09-05T19:47:51.108Z,3.60
2022-09-05T19:48:36.263Z,3.17
2022-09-05T19:51:17.056Z,3.20
2022-09-05T19:54:04.704Z,3.33
2022-09-05T19:56:48.626Z,3.27
2022-09-05T19:59:19.888Z,3.10
2022-09-05T20:01:53.648Z,2.90
2022-09-05T20:04:27.431Z,2.97
2022-09-05T20:07:00.685Z,2.73
2022-09-05T20:09:31.199Z,3.07
2022-09-05T20:12:00.936Z,2.63
2022-09-05T20:14:37.342Z,3.43
2022-09-05T20:17:32.817Z,2.70
2022-09-05T20:20:11.720Z,2.87
2022-09-05T20:22:49.265Z,2.83
2022-09-05T20:25:35.356Z,3.03
2022-09-05T20:28:12.610Z,2.93
2022-09-05T20:30:45.071Z,2.80
2022-09-05T20:33:24.038Z,2.90
2022-09-05T20:43:09.871Z,3.33
2022-09-05T20:43:18.675Z,2.80
2022-09-05T20:43:35.069Z,2.67
2022-09-05T20:44:54.671Z,2.80
2022-09-05T20:54:06.772Z,2.90
2022-09-05T20:54:16.436Z,3.40
2022-09-05T20:54:17.612Z,3.10
2022-09-05T20:56:25.393Z,2.57
2022-09-05T20:59:01.642Z,3.10
2022-09-05T21:01:38.511Z,2.67
2022-09-05T21:04:10.998Z,2.63
2022-09-05T21:06:42.997Z,2.90
2022-09-05T21:09:26.013Z,2.80
2022-09-05T21:12:01.320Z,3.00
2022-09-05T21:14:32.418Z,2.90
2022-09-05T21:17:14.901Z,2.70
2022-09-05T21:19:53.742Z,2.80
2022-09-05T21:22:43.227Z,2.60
2022-09-05T21:25:44.299Z,2.60
2022-09-05T21:28:36.479Z,2.47
2022-09-05T21:31:16.146Z,2.40
2022-09-05T21:33:47.046Z,2.87
2022-09-05T21:36:17.302Z,2.73
2022-09-05T21:38:48.438Z,2.03
2022-09-05T21:41:18.901Z,3.37
2022-09-05T21:47:43.334Z,2.70
2022-09-05T21:47:44.823Z,2.80
2022-09-05T21:49:35.298Z,2.27
2022-09-05T21:52:05.155Z,2.33
2022-09-05T21:59:21.513Z,2.80
2022-09-05T21:59:32.586Z,2.47
2022-09-05T22:00:24.513Z,2.53
2022-09-05T22:02:53.863Z,2.23
2022-09-05T22:05:26.785Z,2.20
2022-09-05T22:07:56.612Z,2.10
2022-09-05T22:10:40.009Z,2.20
2022-09-05T22:13:17.304Z,2.60
2022-09-05T22:15:48.880Z,1.83
2022-09-05T22:18:18.496Z,2.00
2022-09-05T22:21:24.656Z,1.93
2022-09-05T22:23:44.632Z,2.30
2022-09-05T22:26:17.964Z,2.10
2022-09-05T22:28:49.185Z,1.80
2022-09-05T22:31:18.410Z,1.90
2022-09-05T22:33:50.899Z,1.70
2022-09-05T22:36:21.410Z,1.40
2022-09-05T22:38:50.304Z,2.10
2022-09-05T22:41:29.971Z,1.80
2022-09-05T22:43:59.979Z,1.70
2022-09-05T22:46:29.748Z,2.20
2022-09-05T22:48:58.875Z,2.07
2022-09-05T22:51:27.935Z,1.50
2022-09-05T22:53:57.403Z,1.70
2022-09-05T22:56:35.763Z,1.70
2022-09-05T22:59:05.382Z,1.73
2022-09-05T23:01:34.801Z,3.60
2022-09-05T23:04:04.845Z,1.63
2022-09-05T23:06:34.839Z,1.63
2022-09-05T23:09:03.900Z,1.63
2022-09-05T23:11:34.472Z,1.50
2022-09-05T23:14:06.094Z,1.50
2022-09-05T23:16:35.002Z,1.67
2022-09-05T23:19:04.190Z,1.57
2022-09-05T23:21:33.077Z,1.67
2022-09-05T23:24:02.038Z,1.33
2022-09-05T23:26:31.457Z,1.40
2022-09-05T23:29:01.976Z,1.40
2022-09-05T23:31:31.287Z,1.13
2022-09-05T23:34:00.473Z,1.50
2022-09-05T23:36:29.785Z,1.40
2022-09-05T23:38:58.905Z,1.20
2022-09-05T23:41:28.045Z,1.50
2022-09-05T23:43:57.117Z,1.73
2022-09-05T23:46:28.144Z,1.47
2022-09-05T23:48:57.113Z,1.30
2022-09-05T23:51:26.652Z,1.40
2022-09-05T23:53:55.876Z,1.20
2022-09-05T23:56:24.925Z,1.50
2022-09-05T23:58:54.150Z,1.30
